Terminal Aerodrome Forecast
Issued by NWS

Home | Current Version | Previous Version | Text Only | Print | Product List | Glossary On
Versions: 1 2 3 4 5 6 7 8 9 10 11 12 13 14 15 16 17 18 19 20 21 22 23 24 25 26 27 28 29 30
000
FTUS44 KOUN 220526
TAFPNC
TAF
KPNC 220526Z 2206/2306 10005KT P6SM SCT040 BKN100
     FM221200 13009KT 4SM RA BR OVC015
      TEMPO 2213/2217 3SM TSRA BR OVC010CB
     FM230000 11008KT P6SM OVC010=

USA.gov is the U.S. government's official web portal to all federal, state and local government web resources and services.